createdAt,value
2023-01-19T00:02:26.264Z,98951.28
2023-01-19T00:05:15.195Z,98965.53
2023-01-19T00:08:14.990Z,98963.53
2023-01-19T00:11:03.351Z,98967.91
2023-01-19T00:13:52.113Z,98935.88
2023-01-19T00:16:39.851Z,98942.97
2023-01-19T00:19:28.633Z,98927.97
2023-01-19T00:22:16.355Z,98957.22
2023-01-19T00:25:04.549Z,98969.88
2023-01-19T00:27:52.159Z,98952.47
2023-01-19T00:30:40.498Z,98978.53
2023-01-19T00:33:28.209Z,98975.34
2023-01-19T00:36:16.872Z,98983.22
2023-01-19T00:39:04.799Z,98969.03
2023-01-19T00:42:10.735Z,98960.34
2023-01-19T00:44:58.716Z,98983.66
2023-01-19T00:47:47.857Z,98972.97
2023-01-19T00:50:35.542Z,98955.53
2023-01-19T00:53:23.253Z,98972.97
2023-01-19T00:56:10.926Z,98975.66
2023-01-19T00:58:58.743Z,98986.41
2023-01-19T01:01:46.695Z,98993.97
2023-01-19T01:04:36.669Z,98964.31
2023-01-19T01:07:24.989Z,98999.44
2023-01-19T01:10:17.010Z,98974.47
2023-01-19T01:13:21.301Z,98998.09
2023-01-19T01:16:14.523Z,98996.47
2023-01-19T01:19:02.485Z,98998.34
2023-01-19T01:21:51.410Z,99001.41
2023-01-19T01:24:40.041Z,98991.44
2023-01-19T01:27:29.285Z,99005.00
2023-01-19T01:30:17.617Z,98985.97
2023-01-19T01:33:05.319Z,99004.19
2023-01-19T01:35:53.233Z,99012.34
2023-01-19T01:38:41.828Z,99007.88
2023-01-19T01:41:29.851Z,98992.69
2023-01-19T01:44:53.587Z,99003.22
2023-01-19T01:47:47.278Z,99012.28
2023-01-19T01:50:38.721Z,98994.25
2023-01-19T01:53:28.793Z,98997.16
2023-01-19T01:56:21.942Z,98996.13
2023-01-19T01:59:18.260Z,98971.94
2023-01-19T02:02:30.256Z,98961.25
2023-01-19T02:05:39.197Z,98990.81
2023-01-19T02:08:57.770Z,98968.41
2023-01-19T02:12:07.455Z,98988.41
2023-01-19T02:15:02.838Z,98983.28
2023-01-19T02:17:52.995Z,98996.16
2023-01-19T02:20:45.691Z,98995.66
2023-01-19T02:24:00.682Z,98981.84
2023-01-19T02:26:51.383Z,98994.91
2023-01-19T02:29:40.097Z,98987.25
2023-01-19T02:32:28.349Z,99002.53
2023-01-19T02:35:16.464Z,98991.31
2023-01-19T02:38:05.259Z,98991.97
2023-01-19T02:40:55.851Z,98987.44
2023-01-19T02:43:45.171Z,98978.88
2023-01-19T02:46:33.670Z,98969.44
2023-01-19T02:49:21.414Z,98992.84
2023-01-19T02:52:17.970Z,98991.31
2023-01-19T02:55:20.043Z,99015.06
2023-01-19T02:58:50.675Z,99002.03
2023-01-19T03:02:01.558Z,98968.81
2023-01-19T03:05:18.200Z,98980.69
2023-01-19T03:08:38.134Z,99007.78
2023-01-19T03:11:33.999Z,98997.38
2023-01-19T03:14:25.435Z,98983.81
2023-01-19T03:17:16.213Z,98982.06
2023-01-19T03:20:06.400Z,98963.44
2023-01-19T03:23:01.004Z,98980.75
2023-01-19T03:25:51.486Z,98988.97
2023-01-19T03:28:42.500Z,98990.25
2023-01-19T03:31:33.473Z,98984.09
2023-01-19T03:34:24.246Z,98999.81
2023-01-19T03:37:14.604Z,98990.72
2023-01-19T03:40:02.412Z,98979.25
2023-01-19T03:42:50.755Z,98976.06
2023-01-19T03:45:40.056Z,98982.41
2023-01-19T03:48:27.872Z,98970.44
2023-01-19T03:51:16.922Z,98970.75
2023-01-19T03:54:05.850Z,98962.13
2023-01-19T03:56:53.510Z,98977.19
2023-01-19T03:59:41.208Z,98969.41
2023-01-19T04:02:28.889Z,98967.50
2023-01-19T04:05:16.500Z,98972.47
2023-01-19T04:08:04.204Z,98979.50
2023-01-19T04:10:51.827Z,98975.44
2023-01-19T04:13:39.599Z,98974.97
2023-01-19T04:16:27.432Z,98973.31
2023-01-19T04:19:15.341Z,98962.56
2023-01-19T04:22:03.091Z,98978.53
2023-01-19T04:24:51.056Z,98982.44
2023-01-19T04:27:38.723Z,98999.81
2023-01-19T04:30:27.930Z,99007.00
2023-01-19T04:33:15.687Z,99003.47
2023-01-19T04:36:04.371Z,99008.47
2023-01-19T04:38:52.121Z,98995.66
2023-01-19T04:41:39.831Z,98999.69
2023-01-19T04:44:28.686Z,98987.03
2023-01-19T04:47:16.390Z,99014.66
2023-01-19T04:50:06.691Z,99012.47
2023-01-19T04:52:54.267Z,99026.34
2023-01-19T04:55:42.210Z,99034.25
2023-01-19T04:58:29.854Z,99030.69
2023-01-19T05:01:17.689Z,99031.91
2023-01-19T05:04:07.264Z,99041.09
2023-01-19T05:06:54.879Z,99031.16
2023-01-19T05:09:42.610Z,99050.19
2023-01-19T05:12:30.264Z,99037.53
2023-01-19T05:15:18.165Z,99045.06
2023-01-19T05:18:05.888Z,99046.94
2023-01-19T05:20:56.182Z,99024.72
2023-01-19T05:23:43.920Z,99038.22
2023-01-19T05:26:31.645Z,99031.88
2023-01-19T05:29:19.312Z,99027.16
2023-01-19T05:32:07.090Z,99026.28
2023-01-19T05:34:54.865Z,99003.31
2023-01-19T05:37:42.583Z,99018.88
2023-01-19T05:40:30.285Z,99030.75
2023-01-19T05:43:17.925Z,99042.66
2023-01-19T05:46:05.852Z,99013.78
2023-01-19T05:48:53.478Z,99028.00
2023-01-19T05:51:45.762Z,99041.84
2023-01-19T05:54:33.485Z,99035.91
2023-01-19T05:57:23.005Z,99025.56
2023-01-19T06:00:11.453Z,99018.34
2023-01-19T06:03:04.047Z,99021.91
2023-01-19T06:05:52.653Z,99028.88
2023-01-19T06:08:45.331Z,99030.47
2023-01-19T06:11:38.699Z,99011.78
2023-01-19T06:14:28.744Z,99018.53
2023-01-19T06:17:18.638Z,99033.53
2023-01-19T06:20:07.338Z,99045.41
2023-01-19T06:22:58.016Z,99033.53
2023-01-19T06:25:45.638Z,99040.25
2023-01-19T06:28:33.316Z,99058.75
2023-01-19T06:31:21.348Z,99035.72
2023-01-19T06:34:10.371Z,99038.03
2023-01-19T06:36:58.766Z,99058.16
2023-01-19T06:39:46.478Z,99060.47
2023-01-19T06:42:39.257Z,99083.38
2023-01-19T06:45:28.006Z,99085.00
2023-01-19T06:48:16.006Z,99078.25
2023-01-19T06:51:03.711Z,99082.66
2023-01-19T06:53:51.497Z,99087.06
2023-01-19T06:56:39.188Z,99084.28
2023-01-19T06:59:26.958Z,99072.06
2023-01-19T07:02:26.542Z,99076.88
2023-01-19T07:05:15.771Z,99076.47
2023-01-19T07:08:04.253Z,99078.88
2023-01-19T07:11:25.006Z,99068.22
2023-01-19T07:14:01.063Z,99083.66
2023-01-19T07:16:48.749Z,99071.81
2023-01-19T07:19:36.923Z,99086.44
2023-01-19T07:22:26.743Z,99086.44
2023-01-19T07:25:14.875Z,99101.13
2023-01-19T07:28:02.865Z,99070.28
2023-01-19T07:30:55.336Z,99044.13
2023-01-19T07:33:43.184Z,99067.19
2023-01-19T07:36:30.852Z,99066.81
2023-01-19T07:39:18.620Z,99064.41
2023-01-19T07:42:07.461Z,99062.44
2023-01-19T07:44:57.199Z,99056.13
2023-01-19T07:47:45.682Z,99077.09
2023-01-19T07:50:34.789Z,99076.50
2023-01-19T07:53:22.760Z,99048.63
2023-01-19T07:56:11.022Z,99064.28
2023-01-19T07:58:58.731Z,99094.16
2023-01-19T08:01:46.592Z,99090.03
2023-01-19T08:04:36.459Z,99064.25
2023-01-19T08:07:24.310Z,99079.50
2023-01-19T08:10:13.693Z,99084.31
2023-01-19T08:13:01.646Z,99090.00
2023-01-19T08:15:51.734Z,99091.97
2023-01-19T08:18:39.950Z,99101.50
2023-01-19T08:21:30.295Z,99083.53
2023-01-19T08:24:21.571Z,99082.03
2023-01-19T08:27:11.245Z,99094.44
2023-01-19T08:29:59.386Z,99093.63
2023-01-19T08:32:47.023Z,99071.19
2023-01-19T08:35:39.795Z,99105.81
2023-01-19T08:38:27.466Z,99085.97
2023-01-19T08:41:16.723Z,99099.84
2023-01-19T08:44:04.542Z,99094.19
2023-01-19T08:46:52.052Z,99090.94
2023-01-19T08:49:42.253Z,99093.72
2023-01-19T08:52:32.907Z,99087.94
2023-01-19T08:55:21.013Z,99071.72
2023-01-19T08:58:11.996Z,99087.06
2023-01-19T09:01:02.596Z,99067.00
2023-01-19T09:03:52.201Z,99056.03
2023-01-19T09:06:39.896Z,99063.22
2023-01-19T09:09:30.860Z,99058.16
2023-01-19T09:12:18.741Z,99050.28
2023-01-19T09:15:10.958Z,99057.38
2023-01-19T09:17:59.002Z,99019.53
2023-01-19T09:20:49.153Z,99054.38
2023-01-19T09:23:36.834Z,99037.94
2023-01-19T09:26:24.695Z,99043.47
2023-01-19T09:29:12.307Z,99000.16
2023-01-19T09:32:00.127Z,99039.59
2023-01-19T09:34:48.225Z,99020.81
2023-01-19T09:37:38.688Z,99015.25
2023-01-19T09:40:26.716Z,98983.88
2023-01-19T09:43:33.051Z,99014.78
2023-01-19T09:46:24.799Z,99006.94
2023-01-19T09:49:17.182Z,99006.50
2023-01-19T09:52:04.792Z,99003.88
2023-01-19T09:54:57.902Z,99012.38
2023-01-19T09:57:45.693Z,98995.03
2023-01-19T10:00:33.425Z,98996.84
2023-01-19T10:03:23.049Z,98982.97
2023-01-19T10:06:14.209Z,98993.94
2023-01-19T10:09:18.958Z,98986.84
2023-01-19T10:12:27.436Z,98991.22
2023-01-19T10:15:26.729Z,98962.25
2023-01-19T10:18:35.208Z,98975.56
2023-01-19T10:21:25.886Z,98984.75
2023-01-19T10:24:28.832Z,99003.69
2023-01-19T10:27:19.266Z,98997.03
2023-01-19T10:30:08.838Z,98983.25
2023-01-19T10:32:56.668Z,98990.69
2023-01-19T10:35:45.297Z,98976.22
2023-01-19T10:38:34.961Z,98952.84
2023-01-19T10:41:31.943Z,98966.97
2023-01-19T10:44:35.422Z,98964.44
2023-01-19T10:47:34.871Z,98948.38
2023-01-19T10:50:32.050Z,98958.19
2023-01-19T10:53:22.919Z,98937.66
2023-01-19T10:56:38.165Z,98941.69
2023-01-19T10:59:48.920Z,98936.69
2023-01-19T11:02:36.751Z,98939.22
2023-01-19T11:05:27.789Z,98945.00
2023-01-19T11:08:30.938Z,98930.59
2023-01-19T11:11:23.801Z,98945.22
2023-01-19T11:14:17.760Z,98940.38
2023-01-19T11:17:05.514Z,98930.63
2023-01-19T11:19:56.765Z,98944.81
2023-01-19T11:22:44.618Z,98923.22
2023-01-19T11:25:34.733Z,98931.97
2023-01-19T11:28:44.191Z,98869.44
2023-01-19T11:31:35.754Z,98940.97
2023-01-19T11:34:25.455Z,98937.72
2023-01-19T11:37:19.518Z,98940.56
2023-01-19T11:40:19.322Z,98945.00
2023-01-19T11:43:20.102Z,98934.69
2023-01-19T11:46:15.664Z,98934.88
2023-01-19T11:49:15.724Z,98932.84
2023-01-19T11:52:22.733Z,98948.91
2023-01-19T11:55:25.676Z,98919.59
2023-01-19T11:58:16.743Z,98937.44
2023-01-19T12:01:06.737Z,98918.75
2023-01-19T12:04:18.088Z,98952.19
2023-01-19T12:07:10.869Z,98951.19
2023-01-19T12:10:20.076Z,98946.75
2023-01-19T12:13:18.932Z,98957.59
2023-01-19T12:16:09.304Z,98939.56
2023-01-19T12:19:16.150Z,98971.91
2023-01-19T12:22:05.460Z,98941.47
2023-01-19T12:25:03.292Z,98955.00
2023-01-19T12:27:54.437Z,98945.59
2023-01-19T12:30:55.388Z,98929.59
2023-01-19T12:33:43.104Z,98949.16
2023-01-19T12:36:30.831Z,98944.97
2023-01-19T12:39:23.804Z,98960.88
2023-01-19T12:42:15.405Z,98940.13
2023-01-19T12:45:08.157Z,98956.91
2023-01-19T12:47:56.887Z,98940.81
2023-01-19T12:50:46.913Z,98915.81
2023-01-19T12:53:34.659Z,98950.44
2023-01-19T12:56:31.165Z,98947.53
2023-01-19T12:59:25.649Z,98938.56
2023-01-19T13:02:28.803Z,98933.53
2023-01-19T13:05:50.976Z,98945.72
2023-01-19T13:08:57.569Z,98934.97
2023-01-19T13:12:22.684Z,98955.34
2023-01-19T13:15:36.124Z,98957.03
2023-01-19T13:18:31.062Z,98952.09
2023-01-19T13:21:48.758Z,98967.25
2023-01-19T13:25:07.497Z,98974.97
2023-01-19T13:27:55.641Z,98965.00
2023-01-19T13:30:59.592Z,98953.91
2023-01-19T13:33:53.723Z,98981.50
2023-01-19T13:36:45.771Z,98993.84
2023-01-19T13:39:41.146Z,98987.47
2023-01-19T13:42:42.172Z,98966.13
2023-01-19T13:45:38.341Z,98991.69
2023-01-19T13:48:26.230Z,98975.41
2023-01-19T13:51:19.387Z,98958.94
2023-01-19T13:54:17.885Z,98983.25
2023-01-19T13:57:05.714Z,98983.22
2023-01-19T14:00:06.849Z,98995.41
2023-01-19T14:03:18.752Z,99010.19
2023-01-19T14:06:06.676Z,98999.56
2023-01-19T14:09:19.571Z,99017.41
2023-01-19T14:12:15.860Z,99052.31
2023-01-19T14:15:05.485Z,99055.50
2023-01-19T14:18:14.505Z,99024.13
2023-01-19T14:21:10.010Z,99065.28
2023-01-19T14:24:19.962Z,99054.94
2023-01-19T14:27:18.385Z,99077.63
2023-01-19T14:30:25.356Z,99074.47
2023-01-19T14:33:51.866Z,99084.94
2023-01-19T14:36:42.241Z,99066.28
2023-01-19T14:39:35.642Z,99092.84
2023-01-19T14:42:31.125Z,99103.63
2023-01-19T14:45:20.652Z,99095.00
2023-01-19T14:48:24.707Z,99110.94
2023-01-19T14:51:18.619Z,99110.94
2023-01-19T14:54:06.897Z,99121.41
2023-01-19T14:56:54.593Z,99091.00
2023-01-19T14:59:42.817Z,99137.31
2023-01-19T15:02:30.649Z,99145.25
2023-01-19T15:08:42.583Z,99152.13
2023-01-19T15:11:35.073Z,99163.66
2023-01-19T15:14:23.043Z,99175.53
2023-01-19T15:17:27.684Z,99151.78
2023-01-19T15:20:21.288Z,99190.66
2023-01-19T15:23:11.551Z,99181.16
2023-01-19T15:26:04.687Z,99163.34
2023-01-19T15:28:53.053Z,99208.47
2023-01-19T15:31:41.719Z,99189.09
2023-01-19T15:34:32.083Z,99208.91
2023-01-19T15:37:19.852Z,99239.78
2023-01-19T15:40:08.198Z,99252.06
2023-01-19T15:42:55.930Z,99247.72
2023-01-19T15:45:44.919Z,99247.72
2023-01-19T15:48:32.872Z,99250.50
2023-01-19T15:51:23.114Z,99248.13
2023-01-19T15:54:17.094Z,99253.63
2023-01-19T15:57:05.972Z,99258.41
2023-01-19T15:59:53.656Z,99254.81
2023-01-19T16:02:41.529Z,99233.81
2023-01-19T16:05:41.993Z,99252.00
2023-01-19T16:08:30.215Z,99285.28
2023-01-19T16:11:19.105Z,99277.38
2023-01-19T16:14:06.909Z,99293.13
2023-01-19T16:16:54.599Z,99278.78
2023-01-19T16:19:42.362Z,99291.88
2023-01-19T16:22:30.043Z,99292.59
2023-01-19T16:25:17.765Z,99310.84
2023-01-19T16:28:05.557Z,99336.09
2023-01-19T16:30:54.118Z,99349.00
2023-01-19T16:33:41.970Z,99347.41
2023-01-19T16:36:32.604Z,99341.50
2023-01-19T16:39:23.278Z,99343.47
2023-01-19T16:42:11.039Z,99320.38
2023-01-19T16:44:59.023Z,99321.53
2023-01-19T16:48:06.206Z,99344.88
2023-01-19T16:51:06.269Z,99352.31
2023-01-19T16:53:54.158Z,99349.53
2023-01-19T16:56:44.954Z,99349.16
2023-01-19T16:59:35.981Z,99353.84
2023-01-19T17:02:23.674Z,99367.94
2023-01-19T17:05:11.498Z,99361.53
2023-01-19T17:07:59.413Z,99363.22
2023-01-19T17:10:48.280Z,99354.53
2023-01-19T17:13:36.184Z,99356.94
2023-01-19T17:16:25.055Z,99334.78
2023-01-19T17:19:18.769Z,99355.31
2023-01-19T17:22:09.717Z,99358.84
2023-01-19T17:24:57.394Z,99330.66
2023-01-19T17:27:48.143Z,99340.13
2023-01-19T17:30:35.900Z,99333.13
2023-01-19T17:33:25.192Z,99320.38
2023-01-19T17:36:22.650Z,99353.63
2023-01-19T17:39:15.079Z,99376.84
2023-01-19T17:42:02.900Z,99382.00
2023-01-19T17:44:50.667Z,99415.94
2023-01-19T17:47:38.937Z,99433.22
2023-01-19T17:50:29.855Z,99440.34
2023-01-19T17:53:17.654Z,99430.97
2023-01-19T17:56:09.514Z,99430.94
2023-01-19T17:58:58.478Z,99425.16
2023-01-19T18:01:46.803Z,99426.22
2023-01-19T18:04:38.144Z,99422.66
2023-01-19T18:07:29.743Z,99416.94
2023-01-19T18:10:20.775Z,99401.31
2023-01-19T18:13:08.479Z,99430.63
2023-01-19T18:16:03.637Z,99436.94
2023-01-19T18:18:54.034Z,99439.47
2023-01-19T18:21:41.728Z,99470.88
2023-01-19T18:24:29.595Z,99464.28
2023-01-19T18:27:17.804Z,99475.03
2023-01-19T18:30:06.072Z,99457.28
2023-01-19T18:32:53.893Z,99450.56
2023-01-19T18:35:41.621Z,99441.03
2023-01-19T18:38:29.511Z,99413.69
2023-01-19T18:41:19.324Z,99367.59
2023-01-19T18:44:07.058Z,99417.16
2023-01-19T18:46:56.954Z,99403.50
2023-01-19T18:49:45.185Z,99418.88
2023-01-19T18:52:42.969Z,99438.31
2023-01-19T18:55:33.718Z,99415.28
2023-01-19T18:58:21.864Z,99446.31
2023-01-19T19:01:32.717Z,99430.25
2023-01-19T19:04:20.827Z,99448.41
2023-01-19T19:07:11.401Z,99455.94
2023-01-19T19:09:59.125Z,99476.44
2023-01-19T19:12:48.437Z,99484.69
2023-01-19T19:15:36.170Z,99482.34
2023-01-19T19:18:24.156Z,99458.34
2023-01-19T19:21:13.043Z,99507.94
2023-01-19T19:24:00.904Z,99513.88
2023-01-19T19:26:51.527Z,99517.81
2023-01-19T19:29:39.312Z,99545.34
2023-01-19T19:32:27.084Z,99544.81
2023-01-19T19:35:18.815Z,99526.75
2023-01-19T19:38:06.528Z,99513.88
2023-01-19T19:40:57.520Z,99534.09
2023-01-19T19:43:45.229Z,99513.22
2023-01-19T19:46:32.915Z,99506.78
2023-01-19T19:49:21.682Z,99534.38
2023-01-19T19:52:09.214Z,99529.19
2023-01-19T19:54:56.925Z,99550.22
2023-01-19T19:57:47.940Z,99550.63
2023-01-19T20:00:35.728Z,99545.41
2023-01-19T20:03:27.138Z,99559.47
2023-01-19T20:06:21.586Z,99558.50
2023-01-19T20:09:14.381Z,99565.91
2023-01-19T20:12:02.057Z,99559.16
2023-01-19T20:14:50.897Z,99552.53
2023-01-19T20:17:38.585Z,99556.44
2023-01-19T20:20:26.639Z,99544.50
2023-01-19T20:23:17.063Z,99550.84
2023-01-19T20:26:07.436Z,99503.91
2023-01-19T20:29:00.029Z,99531.94
2023-01-19T20:31:51.128Z,99523.97
2023-01-19T20:34:40.278Z,99529.91
2023-01-19T20:37:28.214Z,99517.09
2023-01-19T20:40:16.100Z,99538.31
2023-01-19T20:43:03.885Z,99539.44
2023-01-19T20:45:52.920Z,99538.25
2023-01-19T20:48:40.825Z,99511.19
2023-01-19T20:51:28.610Z,99529.59
2023-01-19T20:54:18.413Z,99504.88
2023-01-19T20:57:06.431Z,99493.44
2023-01-19T20:59:54.351Z,99497.13
2023-01-19T21:02:42.101Z,99486.75
2023-01-19T21:05:29.818Z,99506.13
2023-01-19T21:08:18.464Z,99459.84
2023-01-19T21:11:06.398Z,99488.72
2023-01-19T21:13:56.642Z,99495.03
2023-01-19T21:16:44.504Z,99482.75
2023-01-19T21:19:32.178Z,99486.31
2023-01-19T21:22:22.051Z,99469.53
2023-01-19T21:25:18.023Z,99473.22
2023-01-19T21:28:17.074Z,99499.81
2023-01-19T21:31:14.004Z,99513.41
2023-01-19T21:34:01.739Z,99510.97
2023-01-19T21:36:51.592Z,99508.94
2023-01-19T21:39:39.322Z,99508.03
2023-01-19T21:42:27.081Z,99516.91
2023-01-19T21:45:15.215Z,99518.22
2023-01-19T21:48:03.086Z,99481.66
2023-01-19T21:50:57.722Z,99514.81
2023-01-19T21:53:45.543Z,99516.34
2023-01-19T21:56:34.450Z,99523.88
2023-01-19T21:59:22.264Z,99513.22
2023-01-19T22:02:12.790Z,99520.28
2023-01-19T22:58:48.384Z,99430.50
2023-01-19T23:01:41.136Z,99427.56
2023-01-19T23:04:28.850Z,99389.59
2023-01-19T23:07:16.602Z,99363.81
2023-01-19T23:10:04.406Z,99368.94
2023-01-19T23:12:52.199Z,99376.47
2023-01-19T23:15:39.860Z,99348.94
2023-01-19T23:18:28.258Z,99360.50
2023-01-19T23:21:19.161Z,99363.69
2023-01-19T23:24:07.081Z,99355.00
2023-01-19T23:26:54.768Z,99346.78
2023-01-19T23:29:42.471Z,99333.09
2023-01-19T23:32:30.198Z,99379.03
2023-01-19T23:35:17.861Z,99406.31
2023-01-19T23:38:05.516Z,99435.53
2023-01-19T23:40:56.695Z,99459.34
2023-01-19T23:43:44.392Z,99456.53
2023-01-19T23:46:32.243Z,99429.81
2023-01-19T23:49:20.201Z,99413.09
2023-01-19T23:52:07.928Z,99410.53
2023-01-19T23:54:55.521Z,99405.69
2023-01-19T23:57:45.497Z,99398.94
